sensor_id;sensor_type;location;lat;lon;timestamp;pressure;altitude;pressure_sealevel;temperature;humidity
11806;BME280;5960;42.602;23.482;2022-11-15T00:00:28;93911.38;;;6.14;82.76
11806;BME280;5960;42.602;23.482;2022-11-15T00:02:55;93917.38;;;6.24;83.03
11806;BME280;5960;42.602;23.482;2022-11-15T00:05:21;93917.75;;;6.11;82.35
11806;BME280;5960;42.602;23.482;2022-11-15T00:07:48;93917.66;;;6.03;83.66
11806;BME280;5960;42.602;23.482;2022-11-15T00:10:17;93914.25;;;6.02;83.38
11806;BME280;5960;42.602;23.482;2022-11-15T00:12:43;93926.47;;;6.02;83.48
11806;BME280;5960;42.602;23.482;2022-11-15T00:15:10;93918.22;;;6.07;83.53
11806;BME280;5960;42.602;23.482;2022-11-15T00:17:37;93918.34;;;6.05;83.76
11806;BME280;5960;42.602;23.482;2022-11-15T00:20:04;93921.13;;;6.04;83.32
11806;BME280;5960;42.602;23.482;2022-11-15T00:22:31;93921.69;;;5.97;84.02
11806;BME280;5960;42.602;23.482;2022-11-15T00:24:58;93918.22;;;6.07;84.59
11806;BME280;5960;42.602;23.482;2022-11-15T00:27:26;93912.41;;;5.85;85.34
11806;BME280;5960;42.602;23.482;2022-11-15T00:29:53;93905.91;;;5.89;84.19
11806;BME280;5960;42.602;23.482;2022-11-15T00:32:20;93900.16;;;5.85;83.73
11806;BME280;5960;42.602;23.482;2022-11-15T00:34:47;93907.03;;;5.86;83.82
11806;BME280;5960;42.602;23.482;2022-11-15T00:37:13;93898.38;;;5.86;83.62
11806;BME280;5960;42.602;23.482;2022-11-15T00:39:40;93894.25;;;5.83;82.75
11806;BME280;5960;42.602;23.482;2022-11-15T00:42:07;93900.31;;;5.84;83.39
11806;BME280;5960;42.602;23.482;2022-11-15T00:44:35;93905.47;;;5.94;82.92
11806;BME280;5960;42.602;23.482;2022-11-15T00:47:02;93898.06;;;5.89;82.76
11806;BME280;5960;42.602;23.482;2022-11-15T00:49:28;93894.47;;;5.90;83.86
11806;BME280;5960;42.602;23.482;2022-11-15T00:51:55;93885.72;;;5.81;83.24
11806;BME280;5960;42.602;23.482;2022-11-15T00:54:22;93890.06;;;5.72;84.19
11806;BME280;5960;42.602;23.482;2022-11-15T00:56:48;93890.91;;;5.73;83.20
11806;BME280;5960;42.602;23.482;2022-11-15T00:59:15;93886.03;;;5.78;83.03
11806;BME280;5960;42.602;23.482;2022-11-15T01:01:43;93890.50;;;5.68;82.58
11806;BME280;5960;42.602;23.482;2022-11-15T01:04:10;93880.50;;;5.63;82.14
11806;BME280;5960;42.602;23.482;2022-11-15T01:06:37;93884.91;;;5.63;81.11
11806;BME280;5960;42.602;23.482;2022-11-15T01:09:03;93889.38;;;5.52;81.84
11806;BME280;5960;42.602;23.482;2022-11-15T01:11:30;93890.66;;;5.48;82.27
11806;BME280;5960;42.602;23.482;2022-11-15T01:13:57;93893.69;;;5.43;82.78
11806;BME280;5960;42.602;23.482;2022-11-15T01:16:24;93886.50;;;5.46;83.43
11806;BME280;5960;42.602;23.482;2022-11-15T01:18:52;93880.41;;;5.55;83.77
11806;BME280;5960;42.602;23.482;2022-11-15T01:21:19;93875.94;;;5.65;83.92
11806;BME280;5960;42.602;23.482;2022-11-15T01:23:46;93878.47;;;5.57;84.48
11806;BME280;5960;42.602;23.482;2022-11-15T01:26:14;93871.38;;;5.49;84.38
11806;BME280;5960;42.602;23.482;2022-11-15T01:28:42;93874.53;;;5.53;84.14
11806;BME280;5960;42.602;23.482;2022-11-15T01:31:12;93883.16;;;5.53;83.89
11806;BME280;5960;42.602;23.482;2022-11-15T01:33:38;93875.41;;;5.62;83.93
11806;BME280;5960;42.602;23.482;2022-11-15T01:36:09;93878.13;;;5.70;84.19
11806;BME280;5960;42.602;23.482;2022-11-15T01:38:37;93876.25;;;5.62;84.72
11806;BME280;5960;42.602;23.482;2022-11-15T01:41:04;93877.41;;;5.50;84.38
11806;BME280;5960;42.602;23.482;2022-11-15T01:43:32;93881.22;;;5.55;84.73
11806;BME280;5960;42.602;23.482;2022-11-15T01:46:04;93879.50;;;5.64;85.22
11806;BME280;5960;42.602;23.482;2022-11-15T01:48:34;93880.66;;;5.62;85.85
11806;BME280;5960;42.602;23.482;2022-11-15T01:51:04;93875.34;;;5.71;85.14
11806;BME280;5960;42.602;23.482;2022-11-15T01:53:35;93877.56;;;5.66;85.74
11806;BME280;5960;42.602;23.482;2022-11-15T01:56:06;93876.78;;;5.66;85.09
11806;BME280;5960;42.602;23.482;2022-11-15T01:58:35;93879.59;;;5.72;85.04
11806;BME280;5960;42.602;23.482;2022-11-15T02:01:02;93878.13;;;5.70;85.03
11806;BME280;5960;42.602;23.482;2022-11-15T02:03:34;93881.41;;;5.72;85.36
11806;BME280;5960;42.602;23.482;2022-11-15T02:06:05;93872.06;;;5.69;84.66
11806;BME280;5960;42.602;23.482;2022-11-15T02:08:31;93871.44;;;5.57;85.70
11806;BME280;5960;42.602;23.482;2022-11-15T02:10:59;93875.50;;;5.70;84.72
11806;BME280;5960;42.602;23.482;2022-11-15T02:13:26;93870.41;;;5.68;84.63
11806;BME280;5960;42.602;23.482;2022-11-15T02:16:02;93865.03;;;5.52;84.89
11806;BME280;5960;42.602;23.482;2022-11-15T02:18:35;93864.94;;;5.25;86.10
11806;BME280;5960;42.602;23.482;2022-11-15T02:21:17;93870.38;;;5.32;86.56
11806;BME280;5960;42.602;23.482;2022-11-15T02:24:21;93877.72;;;5.19;86.58
11806;BME280;5960;42.602;23.482;2022-11-15T02:30:24;93871.13;;;5.24;85.80
11806;BME280;5960;42.602;23.482;2022-11-15T02:33:00;93866.19;;;5.21;85.73
11806;BME280;5960;42.602;23.482;2022-11-15T02:35:34;93867.97;;;5.21;86.44
11806;BME280;5960;42.602;23.482;2022-11-15T02:38:08;93866.88;;;5.23;86.76
11806;BME280;5960;42.602;23.482;2022-11-15T02:40:41;93864.47;;;5.30;86.88
11806;BME280;5960;42.602;23.482;2022-11-15T02:43:15;93857.78;;;5.27;86.68
11806;BME280;5960;42.602;23.482;2022-11-15T02:46:06;93860.75;;;5.33;85.42
11806;BME280;5960;42.602;23.482;2022-11-15T02:48:36;93855.88;;;5.20;85.86
11806;BME280;5960;42.602;23.482;2022-11-15T02:51:04;93860.91;;;5.31;84.93
11806;BME280;5960;42.602;23.482;2022-11-15T02:53:31;93855.75;;;5.21;85.61
11806;BME280;5960;42.602;23.482;2022-11-15T02:55:57;93855.78;;;5.11;86.67
11806;BME280;5960;42.602;23.482;2022-11-15T02:58:44;93866.75;;;5.15;86.28
11806;BME280;5960;42.602;23.482;2022-11-15T03:01:24;93870.25;;;5.06;87.33
11806;BME280;5960;42.602;23.482;2022-11-15T03:03:59;93866.63;;;5.17;86.29
11806;BME280;5960;42.602;23.482;2022-11-15T03:06:35;93872.81;;;5.16;86.36
11806;BME280;5960;42.602;23.482;2022-11-15T03:09:07;93871.19;;;5.15;85.90
11806;BME280;5960;42.602;23.482;2022-11-15T03:11:38;93865.28;;;5.12;86.46
11806;BME280;5960;42.602;23.482;2022-11-15T03:14:13;93868.28;;;5.18;86.27
11806;BME280;5960;42.602;23.482;2022-11-15T03:16:50;93865.50;;;5.19;87.40
11806;BME280;5960;42.602;23.482;2022-11-15T03:19:28;93865.91;;;5.24;87.09
11806;BME280;5960;42.602;23.482;2022-11-15T03:21:58;93858.41;;;5.11;87.51
11806;BME280;5960;42.602;23.482;2022-11-15T03:24:28;93857.34;;;5.04;87.88
11806;BME280;5960;42.602;23.482;2022-11-15T03:26:58;93855.69;;;5.03;87.19
11806;BME280;5960;42.602;23.482;2022-11-15T03:29:29;93861.97;;;5.10;86.88
11806;BME280;5960;42.602;23.482;2022-11-15T03:32:03;93859.75;;;5.16;86.14
11806;BME280;5960;42.602;23.482;2022-11-15T03:34:34;93859.59;;;5.17;85.88
11806;BME280;5960;42.602;23.482;2022-11-15T03:37:04;93853.66;;;4.97;86.57
11806;BME280;5960;42.602;23.482;2022-11-15T03:39:32;93856.56;;;4.94;86.83
11806;BME280;5960;42.602;23.482;2022-11-15T03:42:10;93843.97;;;4.79;86.21
11806;BME280;5960;42.602;23.482;2022-11-15T03:44:47;93846.50;;;4.71;84.93
11806;BME280;5960;42.602;23.482;2022-11-15T03:47:23;93842.41;;;4.59;83.83
11806;BME280;5960;42.602;23.482;2022-11-15T03:49:52;93842.69;;;4.56;83.95
11806;BME280;5960;42.602;23.482;2022-11-15T03:52:21;93834.06;;;4.55;83.40
11806;BME280;5960;42.602;23.482;2022-11-15T03:54:49;93826.66;;;4.41;83.03
11806;BME280;5960;42.602;23.482;2022-11-15T03:57:16;93829.19;;;4.32;83.07
11806;BME280;5960;42.602;23.482;2022-11-15T03:59:43;93828.59;;;4.39;83.18
11806;BME280;5960;42.602;23.482;2022-11-15T04:02:10;93836.06;;;4.24;82.47
11806;BME280;5960;42.602;23.482;2022-11-15T04:04:39;93841.84;;;4.17;82.86
11806;BME280;5960;42.602;23.482;2022-11-15T04:07:06;93833.56;;;4.32;83.28
11806;BME280;5960;42.602;23.482;2022-11-15T04:09:32;93827.28;;;4.25;82.80
11806;BME280;5960;42.602;23.482;2022-11-15T04:12:19;93831.38;;;4.37;82.79
11806;BME280;5960;42.602;23.482;2022-11-15T04:14:56;93812.94;;;4.39;82.52
11806;BME280;5960;42.602;23.482;2022-11-15T04:17:34;93819.72;;;4.31;82.71
11806;BME280;5960;42.602;23.482;2022-11-15T04:20:02;93813.22;;;4.45;82.16
11806;BME280;5960;42.602;23.482;2022-11-15T04:22:47;93814.19;;;4.44;82.16
11806;BME280;5960;42.602;23.482;2022-11-15T04:25:30;93812.81;;;4.40;81.33
11806;BME280;5960;42.602;23.482;2022-11-15T04:27:57;93806.81;;;4.30;81.65
11806;BME280;5960;42.602;23.482;2022-11-15T04:30:24;93810.53;;;4.27;82.23
11806;BME280;5960;42.602;23.482;2022-11-15T04:32:51;93812.59;;;4.24;82.24
11806;BME280;5960;42.602;23.482;2022-11-15T04:35:19;93812.94;;;4.39;81.79
11806;BME280;5960;42.602;23.482;2022-11-15T04:37:46;93804.31;;;4.38;81.28
11806;BME280;5960;42.602;23.482;2022-11-15T04:40:11;93807.06;;;4.36;81.46
11806;BME280;5960;42.602;23.482;2022-11-15T04:42:40;93802.00;;;4.35;81.65
11806;BME280;5960;42.602;23.482;2022-11-15T04:45:09;93800.25;;;4.26;81.79
11806;BME280;5960;42.602;23.482;2022-11-15T04:47:36;93808.53;;;4.49;81.71
11806;BME280;5960;42.602;23.482;2022-11-15T04:50:03;93805.25;;;4.47;81.10
11806;BME280;5960;42.602;23.482;2022-11-15T04:52:31;93811.66;;;4.25;81.06
11806;BME280;5960;42.602;23.482;2022-11-15T04:54:58;93808.06;;;4.16;81.36
11806;BME280;5960;42.602;23.482;2022-11-15T04:57:25;93815.78;;;4.17;81.73
11806;BME280;5960;42.602;23.482;2022-11-15T04:59:51;93814.06;;;4.36;81.60
11806;BME280;5960;42.602;23.482;2022-11-15T05:02:18;93814.25;;;4.25;81.92
11806;BME280;5960;42.602;23.482;2022-11-15T05:04:45;93814.25;;;4.25;81.86
11806;BME280;5960;42.602;23.482;2022-11-15T05:07:10;93811.53;;;4.06;82.27
11806;BME280;5960;42.602;23.482;2022-11-15T05:09:38;93813.06;;;3.89;83.33
11806;BME280;5960;42.602;23.482;2022-11-15T05:12:05;93818.16;;;4.01;84.17
11806;BME280;5960;42.602;23.482;2022-11-15T05:14:32;93820.34;;;3.96;84.79
11806;BME280;5960;42.602;23.482;2022-11-15T05:16:59;93816.47;;;4.10;85.30
11806;BME280;5960;42.602;23.482;2022-11-15T05:19:25;93827.31;;;4.05;85.72
11806;BME280;5960;42.602;23.482;2022-11-15T05:21:52;93830.47;;;4.09;86.16
11806;BME280;5960;42.602;23.482;2022-11-15T05:24:19;93828.00;;;3.97;85.39
11806;BME280;5960;42.602;23.482;2022-11-15T05:26:47;93832.44;;;3.87;85.89
11806;BME280;5960;42.602;23.482;2022-11-15T05:29:14;93828.03;;;3.48;86.81
11806;BME280;5960;42.602;23.482;2022-11-15T05:31:40;93828.84;;;3.29;88.40
11806;BME280;5960;42.602;23.482;2022-11-15T05:34:08;93839.94;;;3.41;88.92
11806;BME280;5960;42.602;23.482;2022-11-15T05:36:36;93830.38;;;3.41;89.98
11806;BME280;5960;42.602;23.482;2022-11-15T05:39:05;93826.25;;;3.49;91.16
11806;BME280;5960;42.602;23.482;2022-11-15T05:41:35;93829.97;;;3.46;91.74
11806;BME280;5960;42.602;23.482;2022-11-15T05:44:05;93827.34;;;3.46;92.73
11806;BME280;5960;42.602;23.482;2022-11-15T05:46:33;93825.44;;;3.48;93.00
11806;BME280;5960;42.602;23.482;2022-11-15T05:49:00;93814.88;;;3.59;93.37
11806;BME280;5960;42.602;23.482;2022-11-15T05:51:29;93821.88;;;3.69;93.44
11806;BME280;5960;42.602;23.482;2022-11-15T05:53:56;93830.09;;;3.64;93.66
11806;BME280;5960;42.602;23.482;2022-11-15T05:56:24;93829.16;;;3.75;93.65
11806;BME280;5960;42.602;23.482;2022-11-15T05:58:52;93835.16;;;3.85;93.99
11806;BME280;5960;42.602;23.482;2022-11-15T06:01:21;93829.69;;;3.79;93.58
11806;BME280;5960;42.602;23.482;2022-11-15T06:03:48;93831.16;;;3.81;93.94
11806;BME280;5960;42.602;23.482;2022-11-15T06:06:14;93825.16;;;3.71;93.57
11806;BME280;5960;42.602;23.482;2022-11-15T06:08:41;93831.19;;;3.52;93.52
11806;BME280;5960;42.602;23.482;2022-11-15T06:11:08;93834.91;;;3.49;94.28
11806;BME280;5960;42.602;23.482;2022-11-15T06:13:35;93829.97;;;3.46;95.27
11806;BME280;5960;42.602;23.482;2022-11-15T06:16:02;93834.06;;;3.58;95.59
11806;BME280;5960;42.602;23.482;2022-11-15T06:18:31;93826.81;;;3.72;96.47
11806;BME280;5960;42.602;23.482;2022-11-15T06:20:59;93827.19;;;3.97;96.85
11806;BME280;5960;42.602;23.482;2022-11-15T06:23:26;93830.72;;;4.15;97.36
11806;BME280;5960;42.602;23.482;2022-11-15T06:25:52;93834.78;;;4.47;97.24
11806;BME280;5960;42.602;23.482;2022-11-15T06:28:19;93839.09;;;4.66;96.49
11806;BME280;5960;42.602;23.482;2022-11-15T06:30:46;93835.75;;;4.74;96.17
11806;BME280;5960;42.602;23.482;2022-11-15T06:33:13;93835.00;;;4.92;95.52
11806;BME280;5960;42.602;23.482;2022-11-15T06:35:41;93825.25;;;4.94;94.99
11806;BME280;5960;42.602;23.482;2022-11-15T06:38:09;93831.13;;;4.96;94.44
11806;BME280;5960;42.602;23.482;2022-11-15T06:40:37;93830.34;;;5.14;93.91
11806;BME280;5960;42.602;23.482;2022-11-15T06:43:05;93830.88;;;5.17;93.04
11806;BME280;5960;42.602;23.482;2022-11-15T06:45:32;93825.81;;;5.16;93.16
11806;BME280;5960;42.602;23.482;2022-11-15T06:47:59;93826.16;;;5.21;93.06
11806;BME280;5960;42.602;23.482;2022-11-15T06:50:26;93828.38;;;5.25;92.44
11806;BME280;5960;42.602;23.482;2022-11-15T06:52:54;93829.81;;;5.56;92.30
11806;BME280;5960;42.602;23.482;2022-11-15T06:55:21;93836.59;;;5.67;91.84
11806;BME280;5960;42.602;23.482;2022-11-15T06:57:48;93828.75;;;5.67;90.40
11806;BME280;5960;42.602;23.482;2022-11-15T07:00:16;93823.59;;;5.57;89.47
11806;BME280;5960;42.602;23.482;2022-11-15T07:02:43;93826.28;;;5.47;88.70
11806;BME280;5960;42.602;23.482;2022-11-15T07:05:10;93825.53;;;5.55;89.19
11806;BME280;5960;42.602;23.482;2022-11-15T07:07:38;93827.91;;;5.66;89.31
11806;BME280;5960;42.602;23.482;2022-11-15T07:10:07;93824.03;;;5.70;89.03
11806;BME280;5960;42.602;23.482;2022-11-15T07:12:34;93831.97;;;5.79;89.33
11806;BME280;5960;42.602;23.482;2022-11-15T07:15:01;93821.97;;;5.74;88.66
11806;BME280;5960;42.602;23.482;2022-11-15T07:17:28;93821.03;;;5.83;89.24
11806;BME280;5960;42.602;23.482;2022-11-15T07:19:55;93821.00;;;5.75;88.08
11806;BME280;5960;42.602;23.482;2022-11-15T07:22:21;93820.25;;;5.65;88.11
11806;BME280;5960;42.602;23.482;2022-11-15T07:24:48;93820.31;;;5.73;87.98
11806;BME280;5960;42.602;23.482;2022-11-15T07:27:16;93810.28;;;5.86;87.79
11806;BME280;5960;42.602;23.482;2022-11-15T07:29:43;93813.06;;;6.03;88.94
11806;BME280;5960;42.602;23.482;2022-11-15T07:32:09;93813.28;;;6.10;86.73
11806;BME280;5960;42.602;23.482;2022-11-15T07:34:36;93813.31;;;6.18;86.03
11806;BME280;5960;42.602;23.482;2022-11-15T07:37:03;93814.00;;;6.20;86.53
11806;BME280;5960;42.602;23.482;2022-11-15T07:39:30;93816.38;;;6.31;85.83
11806;BME280;5960;42.602;23.482;2022-11-15T07:41:56;93819.03;;;6.40;85.73
11806;BME280;5960;42.602;23.482;2022-11-15T07:44:38;93812.25;;;6.55;84.45
11806;BME280;5960;42.602;23.482;2022-11-15T07:47:05;93809.41;;;6.48;84.95
11806;BME280;5960;42.602;23.482;2022-11-15T07:49:32;93806.34;;;6.53;84.34
11806;BME280;5960;42.602;23.482;2022-11-15T07:51:58;93812.59;;;6.60;84.96
11806;BME280;5960;42.602;23.482;2022-11-15T07:54:25;93806.75;;;6.67;84.67
11806;BME280;5960;42.602;23.482;2022-11-15T07:56:52;93800.72;;;6.74;84.71
11806;BME280;5960;42.602;23.482;2022-11-15T07:59:19;93810.13;;;6.93;84.29
11806;BME280;5960;42.602;23.482;2022-11-15T08:01:47;93808.84;;;7.06;83.31
11806;BME280;5960;42.602;23.482;2022-11-15T08:04:14;93812.63;;;7.03;82.84
11806;BME280;5960;42.602;23.482;2022-11-15T08:06:41;93811.34;;;7.07;83.06
11806;BME280;5960;42.602;23.482;2022-11-15T08:09:07;93809.19;;;7.11;83.73
11806;BME280;5960;42.602;23.482;2022-11-15T08:11:34;93812.84;;;7.27;83.06
11806;BME280;5960;42.602;23.482;2022-11-15T08:14:01;93806.97;;;7.33;82.54
11806;BME280;5960;42.602;23.482;2022-11-15T08:16:27;93804.53;;;7.40;82.23
11806;BME280;5960;42.602;23.482;2022-11-15T08:18:56;93805.34;;;7.40;82.05
11806;BME280;5960;42.602;23.482;2022-11-15T08:21:22;93803.84;;;7.37;81.71
11806;BME280;5960;42.602;23.482;2022-11-15T08:23:50;93809.91;;;7.21;80.97
11806;BME280;5960;42.602;23.482;2022-11-15T08:26:17;93812.00;;;7.18;80.37
11806;BME280;5960;42.602;23.482;2022-11-15T08:28:44;93805.66;;;7.29;82.12
11806;BME280;5960;42.602;23.482;2022-11-15T08:31:14;93807.94;;;7.23;82.48
11806;BME280;5960;42.602;23.482;2022-11-15T08:33:42;93808.94;;;7.22;82.02
11806;BME280;5960;42.602;23.482;2022-11-15T08:36:13;93807.91;;;7.15;82.63
11806;BME280;5960;42.602;23.482;2022-11-15T08:38:40;93799.75;;;7.18;83.50
11806;BME280;5960;42.602;23.482;2022-11-15T08:41:11;93795.47;;;7.17;83.15
11806;BME280;5960;42.602;23.482;2022-11-15T08:43:39;93795.16;;;7.29;83.40
11806;BME280;5960;42.602;23.482;2022-11-15T08:46:05;93794.38;;;7.36;82.93
11806;BME280;5960;42.602;23.482;2022-11-15T08:48:32;93800.25;;;7.38;82.34
11806;BME280;5960;42.602;23.482;2022-11-15T08:50:59;93797.19;;;7.43;83.21
11806;BME280;5960;42.602;23.482;2022-11-15T08:53:27;93795.72;;;7.57;82.97
11806;BME280;5960;42.602;23.482;2022-11-15T08:55:54;93791.78;;;7.61;82.22
11806;BME280;5960;42.602;23.482;2022-11-15T08:58:20;93784.09;;;7.68;80.97
11806;BME280;5960;42.602;23.482;2022-11-15T09:00:47;93787.19;;;7.47;80.42
11806;BME280;5960;42.602;23.482;2022-11-15T09:03:14;93778.81;;;7.51;80.95
11806;BME280;5960;42.602;23.482;2022-11-15T09:05:41;93771.47;;;7.63;81.41
11806;BME280;5960;42.602;23.482;2022-11-15T09:08:08;93769.34;;;7.75;82.09
11806;BME280;5960;42.602;23.482;2022-11-15T09:10:36;93767.19;;;7.87;81.62
11806;BME280;5960;42.602;23.482;2022-11-15T09:13:03;93764.88;;;8.17;80.95
11806;BME280;5960;42.602;23.482;2022-11-15T09:15:29;93760.63;;;8.24;80.03
11806;BME280;5960;42.602;23.482;2022-11-15T09:17:57;93757.31;;;8.31;80.12
11806;BME280;5960;42.602;23.482;2022-11-15T09:20:24;93755.84;;;8.36;79.92
11806;BME280;5960;42.602;23.482;2022-11-15T09:22:51;93753.88;;;8.38;79.24
11806;BME280;5960;42.602;23.482;2022-11-15T09:25:18;93744.97;;;8.56;79.65
11806;BME280;5960;42.602;23.482;2022-11-15T09:27:46;93752.34;;;8.61;78.77
11806;BME280;5960;42.602;23.482;2022-11-15T09:30:13;93746.22;;;8.77;78.87
11806;BME280;5960;42.602;23.482;2022-11-15T09:32:40;93749.81;;;8.84;79.03
11806;BME280;5960;42.602;23.482;2022-11-15T09:35:06;93745.53;;;8.83;79.02
11806;BME280;5960;42.602;23.482;2022-11-15T09:37:33;93735.97;;;8.90;78.72
11806;BME280;5960;42.602;23.482;2022-11-15T09:40:00;93736.66;;;8.84;78.24
11806;BME280;5960;42.602;23.482;2022-11-15T09:42:39;93730.22;;;8.95;78.55
11806;BME280;5960;42.602;23.482;2022-11-15T09:45:18;93730.38;;;8.93;78.26
11806;BME280;5960;42.602;23.482;2022-11-15T09:47:59;93724.19;;;8.86;78.46
11806;BME280;5960;42.602;23.482;2022-11-15T09:50:34;93719.22;;;8.91;78.03
11806;BME280;5960;42.602;23.482;2022-11-15T09:53:02;93714.09;;;8.98;77.70
11806;BME280;5960;42.602;23.482;2022-11-15T09:55:36;93713.63;;;8.94;77.77
11806;BME280;5960;42.602;23.482;2022-11-15T09:58:15;93710.53;;;8.91;78.05
11806;BME280;5960;42.602;23.482;2022-11-15T10:00:47;93710.59;;;9.06;78.66
11806;BME280;5960;42.602;23.482;2022-11-15T10:03:22;93704.38;;;9.07;77.70
11806;BME280;5960;42.602;23.482;2022-11-15T10:05:52;93703.78;;;9.20;77.38
11806;BME280;5960;42.602;23.482;2022-11-15T10:08:51;93698.72;;;9.10;76.35
11806;BME280;5960;42.602;23.482;2022-11-15T10:11:23;93689.28;;;9.00;77.78
11806;BME280;5960;42.602;23.482;2022-11-15T10:13:52;93694.31;;;9.10;77.86
11806;BME280;5960;42.602;23.482;2022-11-15T10:16:37;93691.97;;;9.15;78.22
11806;BME280;5960;42.602;23.482;2022-11-15T10:19:18;93686.31;;;9.27;77.84
11806;BME280;5960;42.602;23.482;2022-11-15T10:21:56;93681.94;;;9.42;77.54
11806;BME280;5960;42.602;23.482;2022-11-15T10:24:27;93685.56;;;9.41;76.66
11806;BME280;5960;42.602;23.482;2022-11-15T10:26:55;93685.19;;;9.44;76.60
11806;BME280;5960;42.602;23.482;2022-11-15T10:29:23;93683.44;;;9.37;76.90
11806;BME280;5960;42.602;23.482;2022-11-15T10:31:51;93676.78;;;9.26;77.18
11806;BME280;5960;42.602;23.482;2022-11-15T10:34:20;93672.06;;;9.21;77.13
11806;BME280;5960;42.602;23.482;2022-11-15T10:36:54;93675.44;;;9.30;77.12
11806;BME280;5960;42.602;23.482;2022-11-15T10:39:21;93667.91;;;9.27;76.81
11806;BME280;5960;42.602;23.482;2022-11-15T10:41:48;93669.88;;;9.25;77.42
11806;BME280;5960;42.602;23.482;2022-11-15T10:44:24;93665.88;;;9.37;77.36
11806;BME280;5960;42.602;23.482;2022-11-15T10:47:29;93652.44;;;9.32;77.22
11806;BME280;5960;42.602;23.482;2022-11-15T10:49:58;93649.06;;;9.23;76.21
11806;BME280;5960;42.602;23.482;2022-11-15T10:52:26;93637.66;;;9.08;77.27
11806;BME280;5960;42.602;23.482;2022-11-15T10:54:56;93634.41;;;9.06;78.68
11806;BME280;5960;42.602;23.482;2022-11-15T10:57:25;93629.94;;;9.29;79.14
11806;BME280;5960;42.602;23.482;2022-11-15T10:59:54;93624.38;;;9.62;78.06
11806;BME280;5960;42.602;23.482;2022-11-15T11:02:32;93619.97;;;9.93;78.06
11806;BME280;5960;42.602;23.482;2022-11-15T11:05:00;93610.38;;;10.15;75.77
11806;BME280;5960;42.602;23.482;2022-11-15T11:07:31;93611.25;;;10.37;75.29
11806;BME280;5960;42.602;23.482;2022-11-15T11:10:01;93617.78;;;10.57;75.13
11806;BME280;5960;42.602;23.482;2022-11-15T11:12:31;93617.19;;;10.76;74.24
11806;BME280;5960;42.602;23.482;2022-11-15T11:14:59;93613.94;;;10.96;73.52
11806;BME280;5960;42.602;23.482;2022-11-15T11:17:35;93604.34;;;11.10;72.76
11806;BME280;5960;42.602;23.482;2022-11-15T11:20:10;93592.56;;;11.27;71.94
11806;BME280;5960;42.602;23.482;2022-11-15T11:22:50;93588.94;;;11.57;72.15
11806;BME280;5960;42.602;23.482;2022-11-15T11:25:29;93587.53;;;12.80;70.69
11806;BME280;5960;42.602;23.482;2022-11-15T11:30:52;93575.00;;;16.09;60.56
11806;BME280;5960;42.602;23.482;2022-11-15T11:33:31;93568.34;;;18.01;53.21
11806;BME280;5960;42.602;23.482;2022-11-15T11:36:10;93554.84;;;20.11;49.48
11806;BME280;5960;42.602;23.482;2022-11-15T11:38:57;93566.38;;;22.58;42.99
11806;BME280;5960;42.602;23.482;2022-11-15T11:41:43;93558.91;;;24.27;39.47
11806;BME280;5960;42.602;23.482;2022-11-15T11:44:24;93555.66;;;25.17;37.02
11806;BME280;5960;42.602;23.482;2022-11-15T11:46:56;93546.34;;;25.44;35.18
11806;BME280;5960;42.602;23.482;2022-11-15T11:49:33;93542.72;;;25.64;35.64
11806;BME280;5960;42.602;23.482;2022-11-15T11:52:05;93543.91;;;25.42;33.66
11806;BME280;5960;42.602;23.482;2022-11-15T11:54:40;93533.72;;;25.34;35.25
11806;BME280;5960;42.602;23.482;2022-11-15T11:57:16;93530.94;;;26.19;33.46
11806;BME280;5960;42.602;23.482;2022-11-15T11:59:49;93540.38;;;27.38;31.63
11806;BME280;5960;42.602;23.482;2022-11-15T12:02:21;93533.00;;;28.15;29.62
11806;BME280;5960;42.602;23.482;2022-11-15T12:05:00;93520.81;;;28.73;29.70
11806;BME280;5960;42.602;23.482;2022-11-15T12:07:31;93525.88;;;29.45;29.06
11806;BME280;5960;42.602;23.482;2022-11-15T12:10:02;93512.56;;;30.25;27.72
11806;BME280;5960;42.602;23.482;2022-11-15T12:12:36;93519.03;;;30.70;27.35
11806;BME280;5960;42.602;23.482;2022-11-15T12:15:13;93522.81;;;31.09;25.66
11806;BME280;5960;42.602;23.482;2022-11-15T12:17:42;93526.53;;;31.22;25.98
11806;BME280;5960;42.602;23.482;2022-11-15T12:20:17;93518.88;;;31.50;25.72
11806;BME280;5960;42.602;23.482;2022-11-15T12:22:48;93512.50;;;31.73;25.62
11806;BME280;5960;42.602;23.482;2022-11-15T12:25:21;93510.22;;;31.57;24.33
11806;BME280;5960;42.602;23.482;2022-11-15T12:27:54;93502.06;;;31.57;25.46
11806;BME280;5960;42.602;23.482;2022-11-15T12:30:23;93500.13;;;31.93;25.03
11806;BME280;5960;42.602;23.482;2022-11-15T12:32:54;93487.44;;;32.23;24.56
11806;BME280;5960;42.602;23.482;2022-11-15T12:35:29;93482.47;;;32.64;23.51
11806;BME280;5960;42.602;23.482;2022-11-15T12:37:58;93476.28;;;33.15;24.07
11806;BME280;5960;42.602;23.482;2022-11-15T12:40:33;93475.31;;;33.62;22.68
11806;BME280;5960;42.602;23.482;2022-11-15T12:46:03;93479.56;;;33.72;23.38
11806;BME280;5960;42.602;23.482;2022-11-15T12:48:47;93478.50;;;33.64;23.05
11806;BME280;5960;42.602;23.482;2022-11-15T12:51:16;93479.56;;;33.72;22.62
11806;BME280;5960;42.602;23.482;2022-11-15T12:53:43;93473.44;;;33.54;23.12
11806;BME280;5960;42.602;23.482;2022-11-15T12:56:20;93473.75;;;33.95;22.36
11806;BME280;5960;42.602;23.482;2022-11-15T12:58:49;93468.97;;;33.92;22.33
11806;BME280;5960;42.602;23.482;2022-11-15T13:04:26;93471.69;;;33.70;22.42
11806;BME280;5960;42.602;23.482;2022-11-15T13:06:56;93462.31;;;33.59;22.44
11806;BME280;5960;42.602;23.482;2022-11-15T13:09:52;93469.25;;;33.56;22.45
11806;BME280;5960;42.602;23.482;2022-11-15T13:12:52;93457.38;;;32.80;23.38
11806;BME280;5960;42.602;23.482;2022-11-15T13:15:44;93458.69;;;32.26;23.25
11806;BME280;5960;42.602;23.482;2022-11-15T13:18:39;93450.91;;;32.07;24.31
11806;BME280;5960;42.602;23.482;2022-11-15T13:21:21;93446.97;;;31.78;23.93
11806;BME280;5960;42.602;23.482;2022-11-15T13:24:12;93440.53;;;31.83;24.01
11806;BME280;5960;42.602;23.482;2022-11-15T13:26:40;93446.94;;;31.60;24.37
11806;BME280;5960;42.602;23.482;2022-11-15T13:29:15;93446.63;;;31.09;24.58
11806;BME280;5960;42.602;23.482;2022-11-15T13:31:44;93434.88;;;30.82;24.89
11806;BME280;5960;42.602;23.482;2022-11-15T13:34:21;93439.03;;;30.71;25.32
11806;BME280;5960;42.602;23.482;2022-11-15T13:36:50;93442.94;;;30.47;25.57
11806;BME280;5960;42.602;23.482;2022-11-15T13:39:26;93430.84;;;30.22;25.46